Time;durP1;ratioP1;P1;durP2;ratioP2;P2;SDS_P1;SDS_P2;PMS_P1;PMS_P2;Temp;Humidity;BMP_temperature;BMP_pressure;BME280_temperature;BME280_humidity;BME280_pressure;Samples;Min_cycle;Max_cycle;Signal;HPM_P1;HPM_P2
2021/12/21 00:02:22;;;;;;;14.57;4.85;;;3.80;99.90;;;;;;4975488;28;20025;-93
2021/12/21 00:04:49;;;;;;;20.60;4.70;;;3.80;99.90;;;;;;4979775;28;20076;-92
2021/12/21 00:07:14;;;;;;;14.80;4.47;;;3.80;99.90;;;;;;4974874;28;20571;-93
2021/12/21 00:09:40;;;;;;;8.35;4.68;;;3.90;99.90;;;;;;4973485;28;20107;-93
2021/12/21 00:12:07;;;;;;;11.70;4.43;;;3.90;99.90;;;;;;4974111;28;20065;-93
2021/12/21 00:17:15;;;;;;;16.88;6.60;;;3.90;99.90;;;;;;4976843;28;20374;-93
2021/12/21 00:22:31;;;;;;;19.15;4.97;;;3.80;99.90;;;;;;4976943;28;20062;-92
2021/12/21 00:24:55;;;;;;;24.27;4.82;;;3.80;99.90;;;;;;4977822;28;20034;-92
2021/12/21 00:27:21;;;;;;;13.00;4.05;;;3.80;99.90;;;;;;4975972;28;20409;-92
2021/12/21 00:29:47;;;;;;;11.27;3.95;;;3.80;99.90;;;;;;4974794;28;20038;-93
2021/12/21 00:32:14;;;;;;;8.25;3.80;;;3.80;99.90;;;;;;4975347;28;20031;-92
2021/12/21 00:34:40;;;;;;;14.02;3.83;;;3.80;99.90;;;;;;4974961;28;20027;-92
2021/12/21 00:37:06;;;;;;;25.38;5.85;;;3.80;99.90;;;;;;4974577;28;20019;-92
2021/12/21 00:39:33;;;;;;;10.50;3.85;;;3.70;99.90;;;;;;4974761;28;20507;-93
2021/12/21 00:42:01;;;;;;;16.13;3.75;;;3.70;99.90;;;;;;4974429;28;20082;-93
2021/12/21 00:44:27;;;;;;;19.02;3.75;;;3.70;99.90;;;;;;4975260;28;20022;-92
2021/12/21 00:46:52;;;;;;;12.05;3.65;;;3.70;99.90;;;;;;4975142;28;20034;-92
2021/12/21 00:49:20;;;;;;;13.10;4.15;;;3.70;99.90;;;;;;4974775;28;20041;-92
2021/12/21 00:51:47;;;;;;;17.48;4.50;;;3.70;99.90;;;;;;4974723;28;20058;-92
2021/12/21 00:54:14;;;;;;;8.98;3.80;;;3.70;99.90;;;;;;4974682;28;20033;-92
2021/12/21 00:56:40;;;;;;;13.68;4.05;;;3.70;99.90;;;;;;4974742;28;20023;-92
2021/12/21 00:59:06;;;;;;;12.85;4.93;;;3.70;99.90;;;;;;4975671;28;20441;-93
2021/12/21 01:01:37;;;;;;;12.40;4.15;;;3.70;99.90;;;;;;4975004;28;20038;-93
2021/12/21 01:04:07;;;;;;;14.85;4.30;;;3.70;99.90;;;;;;4976373;28;20027;-92
2021/12/21 01:11:41;;;;;;;13.20;4.13;;;3.70;99.90;;;;;;4979668;28;20444;-93
2021/12/21 01:19:12;;;;;;;11.20;3.80;;;3.70;99.90;;;;;;4975561;28;20114;-93
2021/12/21 01:22:39;;;;;;;12.50;3.35;;;3.70;99.90;;;;;;4966325;28;20448;-93
2021/12/21 01:29:30;;;;;;;11.73;3.10;;;3.60;99.90;;;;;;4988300;28;20101;-91
2021/12/21 01:32:08;;;;;;;9.65;3.35;;;3.60;99.90;;;;;;4974644;28;20035;-91
2021/12/21 01:34:54;;;;;;;15.05;3.78;;;3.60;99.90;;;;;;4987054;28;20113;-94
2021/12/21 01:37:38;;;;;;;12.52;3.80;;;3.60;99.90;;;;;;4983690;28;20022;-94
2021/12/21 01:40:25;;;;;;;10.10;3.65;;;3.60;99.90;;;;;;4973078;28;20655;-93
2021/12/21 01:43:07;;;;;;;10.73;3.13;;;3.60;99.90;;;;;;4979695;28;20030;-94
2021/12/21 01:51:04;;;;;;;15.65;3.15;;;3.50;99.90;;;;;;4987578;28;20052;-94
2021/12/21 01:53:29;;;;;;;12.40;3.55;;;3.50;99.90;;;;;;4982062;28;20035;-93
2021/12/21 01:55:56;;;;;;;12.38;3.00;;;3.50;99.90;;;;;;4964998;28;20559;-93
2021/12/21 01:58:21;;;;;;;11.65;2.72;;;3.50;99.90;;;;;;4977879;28;20023;-93
2021/12/21 02:00:47;;;;;;;14.48;2.92;;;3.50;99.90;;;;;;4976405;28;20150;-94
2021/12/21 02:03:13;;;;;;;13.32;2.90;;;3.50;99.90;;;;;;4960379;28;20026;-94
2021/12/21 02:05:39;;;;;;;13.57;3.45;;;3.50;99.90;;;;;;4977142;28;20077;-94
2021/12/21 02:08:05;;;;;;;12.65;2.60;;;3.50;99.90;;;;;;4977254;28;20078;-94
2021/12/21 02:10:31;;;;;;;17.23;2.65;;;3.60;99.90;;;;;;4976498;28;20481;-93
2021/12/21 02:12:58;;;;;;;8.32;2.38;;;3.60;99.90;;;;;;4960594;28;20412;-93
2021/12/21 02:15:25;;;;;;;7.82;2.88;;;3.50;99.90;;;;;;4960228;28;20585;-94
2021/12/21 02:22:57;;;;;;;11.65;2.05;;;3.50;99.90;;;;;;4978457;28;20019;-94
2021/12/21 02:28:12;;;;;;;11.20;2.15;;;3.40;99.90;;;;;;4979169;28;20149;-94
2021/12/21 02:30:43;;;;;;;10.82;2.35;;;3.40;99.90;;;;;;4978133;28;20188;-93
2021/12/21 02:33:09;;;;;;;10.88;2.33;;;3.40;99.90;;;;;;4960240;28;20023;-94
2021/12/21 02:35:35;;;;;;;14.07;2.25;;;3.40;99.90;;;;;;4977222;28;20033;-93
2021/12/21 02:38:01;;;;;;;11.23;2.92;;;3.40;99.90;;;;;;4977160;28;20031;-92
2021/12/21 02:40:27;;;;;;;13.45;2.20;;;3.40;99.90;;;;;;4976680;28;20042;-93
2021/12/21 02:42:52;;;;;;;8.02;2.10;;;3.40;99.90;;;;;;4961745;28;20035;-94
2021/12/21 02:45:18;;;;;;;10.90;2.65;;;3.40;99.90;;;;;;4979920;28;20029;-93
2021/12/21 02:47:44;;;;;;;9.02;2.10;;;3.40;99.90;;;;;;4977400;28;20027;-94
2021/12/21 02:50:09;;;;;;;13.27;2.38;;;3.40;99.90;;;;;;4962280;28;20039;-94
2021/12/21 02:52:35;;;;;;;10.70;2.08;;;3.40;99.90;;;;;;4978912;28;20104;-92
2021/12/21 02:55:04;;;;;;;10.70;1.70;;;3.40;99.90;;;;;;4985805;28;20023;-93
2021/12/21 02:57:30;;;;;;;7.97;1.60;;;3.40;99.90;;;;;;4984327;28;20030;-94
2021/12/21 02:59:55;;;;;;;11.30;2.20;;;3.40;99.90;;;;;;4993023;28;20242;-91
2021/12/21 03:02:22;;;;;;;8.15;2.10;;;3.40;99.90;;;;;;4997904;28;20015;-92
2021/12/21 03:04:50;;;;;;;8.35;2.53;;;3.40;99.90;;;;;;4981421;28;20035;-95
2021/12/21 03:09:54;;;;;;;15.15;2.42;;;3.40;99.90;;;;;;4980807;28;20022;-93
2021/12/21 03:14:46;;;;;;;11.57;2.40;;;3.40;99.90;;;;;;4983364;28;20031;-92
2021/12/21 03:17:13;;;;;;;7.95;1.98;;;3.40;99.90;;;;;;4980918;28;20102;-93
2021/12/21 03:19:39;;;;;;;7.93;1.83;;;3.40;99.90;;;;;;4980219;28;20023;-92
2021/12/21 03:22:06;;;;;;;8.77;2.03;;;3.30;99.90;;;;;;4968760;28;20042;-94
2021/12/21 03:24:32;;;;;;;5.45;1.85;;;3.30;99.90;;;;;;4983571;28;20022;-93
2021/12/21 03:26:57;;;;;;;7.45;2.08;;;3.30;99.90;;;;;;4984142;28;20047;-92
2021/12/21 03:29:24;;;;;;;15.13;1.98;;;3.30;99.90;;;;;;4984344;28;20035;-92
2021/12/21 03:31:50;;;;;;;10.07;1.92;;;3.30;99.90;;;;;;4983510;28;20037;-93
2021/12/21 03:34:15;;;;;;;10.90;1.90;;;3.30;99.90;;;;;;4984757;28;20023;-92
2021/12/21 03:36:41;;;;;;;17.42;1.65;;;3.30;99.90;;;;;;4987518;28;20042;-91
2021/12/21 03:39:10;;;;;;;8.50;1.90;;;3.30;99.90;;;;;;4972460;28;20034;-94
2021/12/21 03:41:40;;;;;;;6.50;1.55;;;3.30;99.90;;;;;;4986820;28;20026;-94
2021/12/21 03:44:08;;;;;;;13.30;2.38;;;3.30;99.90;;;;;;4985650;28;20031;-94
2021/12/21 03:46:34;;;;;;;8.50;2.25;;;3.30;99.90;;;;;;4983321;28;20038;-93
2021/12/21 03:49:26;;;;;;;11.70;2.15;;;3.20;99.90;;;;;;4982730;28;20023;-94
2021/12/21 03:51:49;;;;;;;7.82;1.70;;;3.20;99.90;;;;;;4984732;28;20034;-93
2021/12/21 03:54:14;;;;;;;9.88;1.88;;;3.20;99.90;;;;;;4984123;28;20035;-92
2021/12/21 03:56:42;;;;;;;6.85;1.50;;;3.20;99.90;;;;;;4961541;28;20103;-92
2021/12/21 03:59:08;;;;;;;5.97;1.60;;;3.20;99.90;;;;;;4977350;28;20500;-94
2021/12/21 04:01:34;;;;;;;12.25;1.92;;;3.20;99.90;;;;;;4961803;28;20038;-94
2021/12/21 04:04:00;;;;;;;7.30;1.85;;;3.20;99.90;;;;;;4978461;28;20019;-94
2021/12/21 04:06:26;;;;;;;11.48;1.60;;;3.20;99.90;;;;;;4978201;28;20655;-93
2021/12/21 04:08:52;;;;;;;4.32;1.65;;;3.30;99.90;;;;;;4978279;28;20169;-94
2021/12/21 04:11:17;;;;;;;9.20;2.42;;;3.20;99.90;;;;;;4977272;28;20114;-93
2021/12/21 04:13:43;;;;;;;11.57;1.80;;;3.30;99.90;;;;;;4962594;28;20042;-94
2021/12/21 04:16:09;;;;;;;12.38;2.90;;;3.20;99.90;;;;;;4978403;28;20023;-94
2021/12/21 04:18:37;;;;;;;8.80;2.25;;;3.20;99.90;;;;;;4977876;28;20029;-93
2021/12/21 04:21:06;;;;;;;14.10;2.97;;;3.30;99.90;;;;;;4978456;28;20038;-93
2021/12/21 04:23:32;;;;;;;9.63;2.45;;;3.30;99.90;;;;;;4960532;28;20109;-94
2021/12/21 04:25:58;;;;;;;12.52;2.33;;;3.20;99.90;;;;;;4976305;28;20031;-94
2021/12/21 04:28:24;;;;;;;10.13;2.03;;;3.20;99.90;;;;;;4962069;28;20055;-94
2021/12/21 04:30:50;;;;;;;8.57;2.33;;;3.20;99.90;;;;;;4978912;28;20493;-94
2021/12/21 04:33:15;;;;;;;4.03;2.30;;;3.30;99.90;;;;;;4979125;28;20449;-93
2021/12/21 04:35:41;;;;;;;9.02;2.08;;;3.30;99.90;;;;;;4978976;28;20061;-92
2021/12/21 04:38:44;;;;;;;9.73;1.85;;;3.30;99.90;;;;;;4978251;28;20031;-94
2021/12/21 04:41:08;;;;;;;9.85;2.53;;;3.30;99.90;;;;;;4976034;28;20058;-93
2021/12/21 04:43:33;;;;;;;10.02;2.20;;;3.30;99.90;;;;;;4977117;28;20034;-93
2021/12/21 04:45:59;;;;;;;11.38;2.03;;;3.30;99.90;;;;;;4961444;28;20034;-94
2021/12/21 04:48:25;;;;;;;13.43;3.35;;;3.30;99.90;;;;;;4977314;28;20030;-93
2021/12/21 04:50:51;;;;;;;13.98;5.32;;;3.30;99.90;;;;;;4976571;28;20038;-94
2021/12/21 04:53:18;;;;;;;8.93;2.33;;;3.30;99.90;;;;;;4977177;28;20035;-94
2021/12/21 04:55:44;;;;;;;8.80;2.22;;;3.30;99.90;;;;;;4976724;28;20054;-92
2021/12/21 04:58:11;;;;;;;15.77;2.92;;;3.30;99.90;;;;;;4977796;28;20027;-93
2021/12/21 05:00:38;;;;;;;12.68;2.58;;;3.30;99.90;;;;;;4988482;28;20110;-94
2021/12/21 05:03:04;;;;;;;8.25;2.30;;;3.30;99.90;;;;;;4972140;28;20050;-93
2021/12/21 05:05:30;;;;;;;9.60;2.30;;;3.40;99.90;;;;;;4988342;28;20023;-94
2021/12/21 05:08:08;;;;;;;10.90;2.90;;;3.30;99.90;;;;;;4989279;28;20037;-93
2021/12/21 05:10:47;;;;;;;11.13;2.70;;;3.30;99.90;;;;;;4979964;28;20066;-94
2021/12/21 05:13:14;;;;;;;15.18;3.08;;;3.20;99.90;;;;;;4979020;28;20026;-94
2021/12/21 05:15:40;;;;;;;10.30;2.88;;;3.30;99.90;;;;;;4979920;28;20058;-93
2021/12/21 05:18:06;;;;;;;6.30;2.40;;;3.30;99.90;;;;;;4980764;28;20026;-94
2021/12/21 05:20:32;;;;;;;5.78;2.55;;;3.20;99.90;;;;;;4965796;28;20047;-94
2021/12/21 05:22:58;;;;;;;10.70;3.17;;;3.20;99.90;;;;;;4986583;28;20026;-94
2021/12/21 05:25:24;;;;;;;14.80;3.03;;;3.20;99.90;;;;;;4989403;28;20023;-93
2021/12/21 05:27:49;;;;;;;6.80;2.90;;;3.20;99.90;;;;;;4983184;28;20047;-93
2021/12/21 05:30:15;;;;;;;12.70;2.85;;;3.20;99.90;;;;;;4980242;28;20051;-94
2021/12/21 05:32:41;;;;;;;8.30;3.35;;;3.20;99.90;;;;;;4980702;28;20043;-95
2021/12/21 05:35:08;;;;;;;6.28;2.80;;;3.20;99.90;;;;;;4963307;28;20130;-94
2021/12/21 05:37:37;;;;;;;13.02;3.30;;;3.20;99.90;;;;;;4978890;28;20473;-94
2021/12/21 05:40:15;;;;;;;9.25;2.97;;;3.20;99.90;;;;;;4978534;28;20552;-95
2021/12/21 05:42:43;;;;;;;14.05;3.10;;;3.20;99.90;;;;;;4978514;28;20070;-94
2021/12/21 05:45:11;;;;;;;7.55;3.40;;;3.20;99.90;;;;;;4979679;28;20030;-93
2021/12/21 05:47:37;;;;;;;16.98;3.40;;;3.10;99.90;;;;;;4963815;28;20039;-93
2021/12/21 05:50:07;;;;;;;7.72;3.13;;;3.10;99.90;;;;;;4980301;28;20035;-92
2021/12/21 05:52:33;;;;;;;6.07;3.15;;;3.10;99.90;;;;;;4979528;28;20023;-94
2021/12/21 05:54:59;;;;;;;10.75;3.42;;;3.10;99.90;;;;;;4977826;28;20042;-93
2021/12/21 05:57:25;;;;;;;15.70;3.75;;;3.10;99.90;;;;;;4982509;28;20031;-94
2021/12/21 05:59:50;;;;;;;8.57;3.70;;;3.10;99.90;;;;;;4984886;28;20046;-94
2021/12/21 06:02:17;;;;;;;13.57;4.53;;;3.00;99.90;;;;;;4968524;28;20043;-93
2021/12/21 06:04:43;;;;;;;14.07;3.80;;;3.00;99.90;;;;;;4984026;28;20050;-93
2021/12/21 06:07:10;;;;;;;15.05;4.55;;;3.00;99.90;;;;;;4978167;28;20086;-94
2021/12/21 06:09:35;;;;;;;8.43;3.63;;;3.00;99.90;;;;;;4976923;28;20038;-94
2021/12/21 06:12:15;;;;;;;11.15;3.40;;;3.00;99.90;;;;;;4975473;28;20023;-93
2021/12/21 06:15:10;;;;;;;7.93;3.58;;;3.00;99.90;;;;;;4977697;28;20077;-94
2021/12/21 06:23:29;;;;;;;12.43;4.63;;;2.90;99.90;;;;;;4998009;28;20044;-93
2021/12/21 06:25:54;;;;;;;8.13;3.33;;;2.90;99.90;;;;;;4992898;28;20076;-93
2021/12/21 06:28:21;;;;;;;14.43;3.60;;;2.90;99.90;;;;;;4974231;28;20056;-95
2021/12/21 06:30:47;;;;;;;13.45;3.97;;;2.90;99.90;;;;;;4976455;28;20022;-94
2021/12/21 06:33:33;;;;;;;8.55;3.25;;;2.90;99.90;;;;;;4975434;28;20109;-93
2021/12/21 06:36:00;;;;;;;12.20;3.47;;;2.90;99.90;;;;;;4971929;28;20057;-94
2021/12/21 06:38:26;;;;;;;8.15;2.95;;;3.00;99.90;;;;;;4978602;28;20121;-95
2021/12/21 06:40:52;;;;;;;7.10;3.00;;;2.90;99.90;;;;;;4978169;28;20054;-95
2021/12/21 06:43:19;;;;;;;13.80;3.83;;;3.00;99.90;;;;;;4977984;28;20046;-94
2021/12/21 06:45:51;;;;;;;5.70;2.85;;;2.90;99.90;;;;;;4978954;28;20022;-93
2021/12/21 06:53:36;;;;;;;14.55;3.33;;;3.00;99.90;;;;;;4999594;28;20090;-94
2021/12/21 06:56:07;;;;;;;6.25;3.38;;;2.90;99.90;;;;;;4982368;28;20035;-95
2021/12/21 06:58:34;;;;;;;10.18;3.65;;;2.90;99.90;;;;;;4985541;28;20030;-94
2021/12/21 07:01:01;;;;;;;8.02;3.13;;;2.90;99.90;;;;;;4985278;28;20034;-94
2021/12/21 07:03:27;;;;;;;13.85;3.63;;;2.90;99.90;;;;;;4976182;28;20050;-94
2021/12/21 07:06:01;;;;;;;7.35;2.88;;;2.90;99.90;;;;;;4981983;28;20045;-94
2021/12/21 07:08:29;;;;;;;7.57;3.40;;;2.90;99.90;;;;;;4994854;28;20030;-94
2021/12/21 07:11:20;;;;;;;6.03;3.58;;;2.90;99.90;;;;;;4982613;28;20491;-93
2021/12/21 07:19:14;;;;;;;10.20;4.57;;;2.90;99.90;;;;;;5002404;28;20084;-93
2021/12/21 07:21:40;;;;;;;7.18;3.20;;;2.90;99.90;;;;;;4998195;28;20022;-92
2021/12/21 07:24:06;;;;;;;11.07;3.53;;;2.90;99.90;;;;;;5000041;28;20057;-93
2021/12/21 07:26:38;;;;;;;8.90;3.13;;;2.80;99.90;;;;;;5009007;28;20050;-93
2021/12/21 07:29:04;;;;;;;7.70;2.90;;;2.80;99.90;;;;;;4987228;28;20035;-93
2021/12/21 07:31:33;;;;;;;10.43;3.40;;;2.80;99.90;;;;;;4986241;28;20101;-93
2021/12/21 07:33:59;;;;;;;5.18;2.65;;;2.80;99.90;;;;;;4986884;28;20033;-93
2021/12/21 07:36:27;;;;;;;10.45;3.45;;;2.90;99.90;;;;;;4985270;28;20034;-93
2021/12/21 07:38:52;;;;;;;5.10;2.97;;;2.80;99.90;;;;;;4985545;28;20102;-94
2021/12/21 07:41:18;;;;;;;5.43;2.95;;;2.80;99.90;;;;;;4984241;28;20050;-92
2021/12/21 07:43:44;;;;;;;7.05;3.33;;;2.90;99.90;;;;;;4984240;28;20026;-93
2021/12/21 07:46:10;;;;;;;8.68;2.95;;;2.90;99.90;;;;;;4982896;28;20041;-94
2021/12/21 07:48:40;;;;;;;7.68;2.97;;;2.90;99.90;;;;;;4980750;28;20149;-93
2021/12/21 07:51:07;;;;;;;5.90;2.80;;;2.80;99.90;;;;;;4980820;28;20034;-93
2021/12/21 07:53:34;;;;;;;5.05;2.50;;;2.80;99.90;;;;;;4980183;28;20377;-92
2021/12/21 07:56:02;;;;;;;3.83;2.42;;;2.80;99.90;;;;;;4980102;28;20113;-91
2021/12/21 07:58:33;;;;;;;7.65;2.90;;;2.80;99.90;;;;;;4980772;28;20037;-93
2021/12/21 08:01:00;;;;;;;5.72;2.70;;;2.80;99.90;;;;;;4980577;28;20074;-93
2021/12/21 08:03:27;;;;;;;8.25;2.92;;;2.80;99.90;;;;;;4979258;28;20480;-93
2021/12/21 08:05:55;;;;;;;5.30;3.05;;;2.80;99.90;;;;;;4979333;28;20101;-93
2021/12/21 08:08:27;;;;;;;4.72;2.80;;;2.80;99.90;;;;;;4978489;28;20026;-94
2021/12/21 08:11:07;;;;;;;8.18;3.85;;;2.80;99.90;;;;;;4976828;28;20034;-93
2021/12/21 08:13:33;;;;;;;6.40;2.45;;;2.80;99.90;;;;;;4979214;28;20045;-94
2021/12/21 08:16:01;;;;;;;6.28;2.85;;;2.70;99.90;;;;;;4975466;28;20512;-92
2021/12/21 08:18:27;;;;;;;4.88;2.60;;;2.70;99.90;;;;;;4981904;28;20078;-93
2021/12/21 08:20:53;;;;;;;7.00;2.67;;;2.70;99.90;;;;;;4999792;28;20030;-93
2021/12/21 08:23:19;;;;;;;7.57;3.10;;;2.80;99.90;;;;;;4993806;28;20033;-94
2021/12/21 08:25:45;;;;;;;4.60;3.30;;;2.80;99.90;;;;;;4990939;28;20034;-94
2021/12/21 08:28:10;;;;;;;6.20;3.92;;;2.80;99.90;;;;;;4989364;28;20049;-93
2021/12/21 08:30:37;;;;;;;6.47;3.17;;;2.80;99.90;;;;;;4984256;28;20041;-94
2021/12/21 08:33:03;;;;;;;7.20;5.47;;;2.80;99.90;;;;;;4982770;28;20121;-92
2021/12/21 08:35:29;;;;;;;4.55;3.22;;;2.80;99.90;;;;;;4979327;28;20083;-94
2021/12/21 08:38:03;;;;;;;9.88;3.72;;;2.80;99.90;;;;;;4984310;28;20097;-94
2021/12/21 08:40:36;;;;;;;5.90;3.95;;;2.70;99.90;;;;;;4977778;28;20038;-94
2021/12/21 08:43:07;;;;;;;4.75;3.22;;;2.70;99.90;;;;;;4984671;28;20038;-94
2021/12/21 08:45:34;;;;;;;7.75;4.55;;;2.70;99.90;;;;;;4978179;28;20026;-93
2021/12/21 08:48:01;;;;;;;8.27;4.30;;;2.80;99.90;;;;;;4973253;28;20107;-94
2021/12/21 08:50:34;;;;;;;9.13;4.32;;;2.80;99.90;;;;;;4971668;28;20101;-92
2021/12/21 08:53:00;;;;;;;7.68;5.13;;;2.80;99.90;;;;;;4971757;28;20045;-92
2021/12/21 08:55:26;;;;;;;11.65;4.55;;;2.70;99.90;;;;;;4975992;28;20027;-92
2021/12/21 08:57:52;;;;;;;10.32;5.15;;;2.70;99.90;;;;;;4976994;28;20122;-93
2021/12/21 09:00:18;;;;;;;6.70;4.80;;;2.70;99.90;;;;;;4977067;28;20073;-93
2021/12/21 09:02:44;;;;;;;9.77;5.10;;;2.70;99.90;;;;;;4976226;28;20019;-93
2021/12/21 09:05:14;;;;;;;8.10;5.13;;;2.70;99.90;;;;;;4976070;28;20037;-93
2021/12/21 09:07:41;;;;;;;10.33;4.80;;;2.70;99.90;;;;;;4976229;28;20029;-94
2021/12/21 09:10:08;;;;;;;7.88;4.50;;;2.70;99.90;;;;;;4976232;28;20554;-92
2021/12/21 09:12:36;;;;;;;7.93;3.85;;;2.70;99.90;;;;;;4976275;28;20085;-95
2021/12/21 09:15:03;;;;;;;8.43;4.65;;;2.70;99.90;;;;;;4979589;28;20416;-93
2021/12/21 09:17:29;;;;;;;6.88;3.60;;;2.70;99.90;;;;;;4977381;28;20026;-93
2021/12/21 09:19:56;;;;;;;4.95;3.55;;;2.70;99.90;;;;;;4976421;28;20034;-94
2021/12/21 09:22:22;;;;;;;4.90;3.20;;;2.70;99.90;;;;;;4975673;28;20030;-93
2021/12/21 09:24:47;;;;;;;9.82;3.42;;;2.60;99.90;;;;;;4978164;28;20038;-93
2021/12/21 09:27:13;;;;;;;6.78;3.05;;;2.70;99.90;;;;;;4976537;28;20132;-93
2021/12/21 09:29:39;;;;;;;4.57;2.97;;;2.70;99.90;;;;;;4978684;28;20027;-93
2021/12/21 09:32:13;;;;;;;4.82;3.30;;;2.70;99.90;;;;;;4982019;28;20026;-93
2021/12/21 09:34:40;;;;;;;8.52;3.00;;;2.70;99.90;;;;;;4976935;28;20111;-95
2021/12/21 09:37:14;;;;;;;11.77;3.08;;;2.70;99.90;;;;;;4980908;28;20032;-93
2021/12/21 09:39:41;;;;;;;5.47;3.00;;;2.70;99.90;;;;;;4986909;28;20035;-93
2021/12/21 09:42:08;;;;;;;8.30;2.80;;;2.70;99.90;;;;;;4979905;28;20347;-94
2021/12/21 09:44:34;;;;;;;8.98;3.00;;;2.70;99.90;;;;;;4979891;28;20101;-92
2021/12/21 09:47:01;;;;;;;7.35;3.00;;;2.70;99.90;;;;;;4980485;28;20058;-92
2021/12/21 09:49:27;;;;;;;6.82;3.17;;;2.70;99.90;;;;;;4980425;28;20464;-93
2021/12/21 09:51:53;;;;;;;5.50;2.78;;;2.70;99.90;;;;;;4981380;28;20054;-93
2021/12/21 09:54:19;;;;;;;4.75;2.60;;;2.70;99.90;;;;;;4980978;28;20031;-94
2021/12/21 09:56:45;;;;;;;5.15;2.78;;;2.70;99.90;;;;;;4980808;28;20113;-92
2021/12/21 09:59:11;;;;;;;4.88;3.00;;;2.70;99.90;;;;;;4981870;28;20036;-92
2021/12/21 10:01:36;;;;;;;6.53;3.42;;;2.70;99.90;;;;;;4980402;28;20046;-92
2021/12/21 10:04:02;;;;;;;8.68;3.28;;;2.70;99.90;;;;;;4980582;28;20022;-93
2021/12/21 10:06:29;;;;;;;6.05;3.40;;;2.70;99.90;;;;;;4980047;28;20026;-94
2021/12/21 10:09:08;;;;;;;5.63;3.25;;;2.70;99.90;;;;;;4979254;28;20042;-93
2021/12/21 10:11:47;;;;;;;5.00;3.10;;;2.80;99.90;;;;;;4978239;28;20370;-93
2021/12/21 10:14:12;;;;;;;7.35;3.90;;;2.80;99.90;;;;;;4975298;28;20031;-92
2021/12/21 10:16:38;;;;;;;8.02;3.90;;;2.80;99.90;;;;;;4961802;28;20119;-92
2021/12/21 10:19:07;;;;;;;8.23;4.18;;;2.80;99.90;;;;;;4961712;28;20047;-92
2021/12/21 10:21:44;;;;;;;7.88;4.53;;;2.80;99.90;;;;;;4961941;28;20042;-93
2021/12/21 10:24:42;;;;;;;7.57;4.10;;;2.90;99.90;;;;;;4961016;28;20105;-93
2021/12/21 10:27:10;;;;;;;8.40;4.57;;;2.90;99.90;;;;;;4960640;28;20050;-92
2021/12/21 10:29:56;;;;;;;7.53;4.35;;;2.80;99.90;;;;;;4960729;28;20171;-93
2021/12/21 10:32:24;;;;;;;8.48;4.40;;;2.90;99.90;;;;;;4961068;28;20397;-92
2021/12/21 10:35:08;;;;;;;10.30;4.72;;;2.80;99.90;;;;;;4960865;28;20023;-92
2021/12/21 10:37:39;;;;;;;12.48;4.63;;;2.90;99.90;;;;;;4961080;28;20178;-93
2021/12/21 10:40:12;;;;;;;14.90;5.70;;;2.80;99.90;;;;;;4960845;28;20480;-91
2021/12/21 10:43:06;;;;;;;11.60;5.75;;;2.90;99.90;;;;;;4961261;28;20173;-92
2021/12/21 10:45:43;;;;;;;11.30;6.32;;;2.90;99.90;;;;;;4974819;28;20030;-93
2021/12/21 10:48:15;;;;;;;9.27;5.75;;;2.90;99.90;;;;;;4981104;28;20023;-91
2021/12/21 10:50:43;;;;;;;10.55;6.13;;;2.90;99.90;;;;;;4979532;28;20041;-92
2021/12/21 10:53:17;;;;;;;10.70;5.95;;;2.90;99.90;;;;;;4979961;28;20027;-92
2021/12/21 10:55:43;;;;;;;9.52;5.93;;;2.90;99.90;;;;;;4980082;28;20026;-92
2021/12/21 10:58:13;;;;;;;16.65;7.05;;;2.90;99.90;;;;;;4982619;28;20486;-92
2021/12/21 11:00:55;;;;;;;14.40;6.97;;;2.90;99.90;;;;;;4980112;28;20038;-92
2021/12/21 11:03:36;;;;;;;12.70;6.40;;;2.90;99.90;;;;;;4979962;28;20054;-92
2021/12/21 11:06:14;;;;;;;13.93;7.72;;;2.90;99.90;;;;;;4979830;28;20044;-92
2021/12/21 11:08:43;;;;;;;11.00;8.25;;;2.90;99.90;;;;;;4980142;28;20022;-92
2021/12/21 11:11:27;;;;;;;11.95;7.60;;;2.90;99.90;;;;;;4979265;28;20053;-93
2021/12/21 11:14:04;;;;;;;13.95;7.50;;;3.00;99.90;;;;;;4977934;28;20042;-93
2021/12/21 11:16:42;;;;;;;13.23;7.47;;;3.00;99.90;;;;;;4962696;28;20035;-93
2021/12/21 11:19:10;;;;;;;13.35;8.15;;;3.00;99.90;;;;;;4969106;28;20030;-93
2021/12/21 11:21:37;;;;;;;14.73;8.82;;;3.00;99.90;;;;;;4979944;28;20124;-92
2021/12/21 11:24:07;;;;;;;21.13;10.38;;;2.90;99.90;;;;;;4979338;28;20548;-93
2021/12/21 11:26:34;;;;;;;14.88;8.35;;;2.90;99.90;;;;;;4969976;28;20023;-93
2021/12/21 11:29:07;;;;;;;17.63;9.52;;;2.90;99.90;;;;;;4973584;28;20037;-92
2021/12/21 11:31:41;;;;;;;16.60;9.40;;;2.90;99.90;;;;;;4961456;28;20034;-93
2021/12/21 11:34:13;;;;;;;17.33;10.00;;;2.90;99.90;;;;;;4975961;28;20632;-92
2021/12/21 11:39:31;;;;;;;21.50;10.82;;;3.00;99.90;;;;;;4985894;28;20050;-92
2021/12/21 11:42:01;;;;;;;19.33;11.52;;;3.00;99.90;;;;;;4984685;28;20047;-93
2021/12/21 11:44:54;;;;;;;18.42;10.90;;;3.00;99.90;;;;;;4984344;28;20038;-91
2021/12/21 11:47:39;;;;;;;24.13;11.02;;;3.00;99.90;;;;;;4985574;28;20038;-92
2021/12/21 11:50:08;;;;;;;20.30;11.75;;;3.00;99.90;;;;;;4990050;28;20018;-94
2021/12/21 11:52:49;;;;;;;22.67;13.32;;;3.10;99.90;;;;;;4993611;28;20064;-92
2021/12/21 11:55:18;;;;;;;23.88;13.15;;;3.10;99.90;;;;;;4991864;28;20033;-93
2021/12/21 11:57:50;;;;;;;23.98;12.18;;;3.10;99.90;;;;;;4991132;28;20033;-92
2021/12/21 12:00:26;;;;;;;19.08;11.35;;;3.10;99.90;;;;;;4985945;28;20030;-92
2021/12/21 12:02:53;;;;;;;18.88;11.93;;;3.10;99.90;;;;;;4981398;28;20030;-94
2021/12/21 12:05:28;;;;;;;22.00;12.20;;;3.00;99.90;;;;;;4980024;28;20034;-94
2021/12/21 12:08:05;;;;;;;21.23;11.93;;;3.00;99.90;;;;;;4977398;28;20033;-92
2021/12/21 12:10:33;;;;;;;22.63;11.27;;;3.00;99.90;;;;;;4981193;28;20141;-94
2021/12/21 12:13:24;;;;;;;18.25;11.00;;;3.00;99.90;;;;;;4980611;28;20018;-94
2021/12/21 12:15:58;;;;;;;36.80;12.82;;;3.00;99.90;;;;;;4980235;28;20041;-94
2021/12/21 12:18:46;;;;;;;18.70;11.30;;;3.00;99.90;;;;;;4979087;28;20436;-95
2021/12/21 12:21:21;;;;;;;24.20;11.50;;;3.00;99.90;;;;;;4992603;28;20045;-95
2021/12/21 12:23:53;;;;;;;20.88;11.57;;;3.00;99.90;;;;;;4977988;28;20053;-94
2021/12/21 12:26:40;;;;;;;21.85;10.20;;;3.00;99.90;;;;;;4972769;28;20030;-94
2021/12/21 12:29:15;;;;;;;20.42;10.88;;;3.00;99.90;;;;;;4977870;28;20030;-93
2021/12/21 12:31:46;;;;;;;18.85;10.52;;;2.90;99.90;;;;;;4975577;28;20019;-95
2021/12/21 12:34:23;;;;;;;17.55;9.82;;;3.00;99.90;;;;;;4976095;28;20034;-95
2021/12/21 12:36:55;;;;;;;17.58;8.95;;;2.90;99.90;;;;;;4980031;28;20140;-94
2021/12/21 12:39:38;;;;;;;18.83;10.70;;;2.90;99.90;;;;;;4980503;28;20034;-93
2021/12/21 12:42:10;;;;;;;21.48;9.73;;;2.90;99.90;;;;;;4975333;28;20042;-94
2021/12/21 12:44:41;;;;;;;20.08;10.25;;;2.90;99.90;;;;;;4978436;28;20026;-94
2021/12/21 12:47:10;;;;;;;19.85;9.02;;;2.90;99.90;;;;;;4977309;28;20460;-94
2021/12/21 12:49:52;;;;;;;13.18;7.20;;;2.90;99.90;;;;;;4978323;28;20034;-94
2021/12/21 12:52:28;;;;;;;13.93;6.97;;;3.00;99.90;;;;;;4966138;28;20117;-93
2021/12/21 12:54:56;;;;;;;11.63;5.97;;;2.90;99.90;;;;;;4978833;28;20109;-93
2021/12/21 12:57:28;;;;;;;12.30;6.60;;;2.90;99.90;;;;;;4974909;28;20030;-93
2021/12/21 12:59:56;;;;;;;17.75;6.47;;;2.90;99.90;;;;;;4977234;28;20030;-93
2021/12/21 13:02:27;;;;;;;14.50;5.53;;;3.00;99.90;;;;;;4978006;28;20033;-93
2021/12/21 13:04:56;;;;;;;14.93;6.55;;;3.00;99.90;;;;;;4980008;28;20026;-94
2021/12/21 13:07:27;;;;;;;15.15;6.15;;;3.00;99.90;;;;;;4980076;28;20035;-94
2021/12/21 13:10:03;;;;;;;17.23;6.03;;;3.00;99.90;;;;;;4980740;28;20029;-94
2021/12/21 13:12:32;;;;;;;17.23;6.30;;;3.00;99.90;;;;;;4978206;28;20034;-93
2021/12/21 13:14:59;;;;;;;11.18;5.47;;;3.00;99.90;;;;;;4981685;28;20091;-94
2021/12/21 13:17:25;;;;;;;17.33;5.35;;;3.00;99.90;;;;;;4978850;28;20031;-92
2021/12/21 13:19:51;;;;;;;15.10;4.80;;;3.00;99.90;;;;;;4979887;28;20220;-93
2021/12/21 13:22:25;;;;;;;16.30;6.93;;;3.00;99.90;;;;;;4979757;28;20061;-92
2021/12/21 13:24:52;;;;;;;14.00;4.85;;;3.00;99.90;;;;;;4980659;28;20024;-94
2021/12/21 13:27:21;;;;;;;14.05;5.03;;;3.00;99.90;;;;;;4978542;28;20132;-92
2021/12/21 13:29:49;;;;;;;13.18;5.22;;;3.00;99.90;;;;;;4980742;28;20029;-94
2021/12/21 13:32:18;;;;;;;17.88;5.50;;;3.00;99.90;;;;;;4978151;28;20121;-93
2021/12/21 13:34:47;;;;;;;18.20;5.07;;;3.00;99.90;;;;;;4980502;28;20018;-95
2021/12/21 13:37:18;;;;;;;14.00;5.40;;;2.90;99.90;;;;;;4981009;28;20022;-94
2021/12/21 13:39:47;;;;;;;18.65;6.18;;;3.00;99.90;;;;;;4980080;28;20053;-93
2021/12/21 13:42:15;;;;;;;13.80;5.45;;;3.00;99.90;;;;;;4977191;28;20428;-94
2021/12/21 13:44:59;;;;;;;18.55;6.95;;;3.00;99.90;;;;;;4980608;28;20026;-94
2021/12/21 13:47:29;;;;;;;14.98;6.32;;;3.00;99.90;;;;;;4970049;28;20058;-95
2021/12/21 13:50:01;;;;;;;21.98;7.07;;;3.10;99.90;;;;;;4979190;28;20072;-93
2021/12/21 13:52:39;;;;;;;16.10;5.57;;;3.10;99.90;;;;;;4981240;28;20049;-94
2021/12/21 13:55:27;;;;;;;17.02;5.40;;;3.10;99.90;;;;;;4992274;28;20031;-93
2021/12/21 13:57:56;;;;;;;20.50;5.47;;;3.20;99.90;;;;;;4976712;28;20018;-94
2021/12/21 14:00:27;;;;;;;12.75;5.18;;;3.20;99.90;;;;;;4997520;28;20076;-94
2021/12/21 14:03:03;;;;;;;15.65;5.35;;;3.20;99.90;;;;;;4981199;28;20033;-95